Time;durP1;ratioP1;P1;durP2;ratioP2;P2;SDS_P1;SDS_P2;PMS_P1;PMS_P2;Temp;Humidity;BMP_temperature;BMP_pressure;BME280_temperature;BME280_humidity;BME280_pressure;Samples;Min_cycle;Max_cycle;Signal;HPM_P1;HPM_P2
2023/06/15 00:01:03;;;;;;;2.92;1.25;;;;;;;18.75;46.46;100378.88;10256926;28;20047;-64
2023/06/15 00:06:05;;;;;;;3.30;1.02;;;;;;;18.68;46.54;100381.72;10242511;28;20054;-63
2023/06/15 00:11:06;;;;;;;2.63;0.90;;;;;;;18.63;46.57;100389.72;10260575;28;20050;-64
2023/06/15 00:16:08;;;;;;;1.88;1.10;;;;;;;18.58;46.86;100381.41;10259842;28;20027;-64
2023/06/15 00:21:09;;;;;;;2.97;0.95;;;;;;;18.50;47.08;100387.16;10258541;28;20044;-65
2023/06/15 00:26:11;;;;;;;1.20;1.02;;;;;;;18.44;47.22;100383.44;10258445;28;20119;-63
2023/06/15 00:31:12;;;;;;;1.30;0.80;;;;;;;18.40;47.17;100384.97;10262095;28;20143;-63
2023/06/15 00:36:13;;;;;;;1.98;0.85;;;;;;;18.37;47.51;100390.88;10269224;28;20051;-63
2023/06/15 00:41:15;;;;;;;1.98;1.27;;;;;;;18.34;47.56;100391.31;10263253;28;20040;-64
2023/06/15 00:46:17;;;;;;;2.05;1.20;;;;;;;18.30;47.67;100390.09;10268389;28;20040;-62
2023/06/15 00:51:20;;;;;;;2.25;1.15;;;;;;;18.21;47.55;100382.25;10268420;28;20058;-64
2023/06/15 00:56:21;;;;;;;1.48;1.00;;;;;;;18.16;47.80;100386.69;10264743;28;20027;-63
2023/06/15 01:01:23;;;;;;;1.83;1.30;;;;;;;18.13;48.02;100398.88;10263037;28;20062;-66
2023/06/15 01:06:31;;;;;;;2.03;1.10;;;;;;;18.08;48.14;100395.16;10267879;28;20069;-63
2023/06/15 01:11:34;;;;;;;1.67;0.80;;;;;;;17.98;48.38;100409.25;10262591;28;20090;-65
2023/06/15 01:16:43;;;;;;;1.55;0.95;;;;;;;17.87;48.35;100402.69;10269266;28;20039;-64
2023/06/15 01:21:46;;;;;;;1.38;1.00;;;;;;;17.75;48.75;100413.41;10268615;28;20130;-64
2023/06/15 01:26:49;;;;;;;2.17;1.40;;;;;;;17.67;48.87;100401.97;10260105;28;20475;-63
2023/06/15 01:31:52;;;;;;;2.80;1.30;;;;;;;17.58;49.11;100404.97;10261301;28;20050;-63
2023/06/15 01:36:53;;;;;;;1.92;1.30;;;;;;;17.53;49.41;100402.06;10264771;28;20051;-65
2023/06/15 01:41:55;;;;;;;4.43;1.35;;;;;;;17.43;49.71;100399.00;10262204;28;20058;-63
2023/06/15 01:46:57;;;;;;;1.27;1.13;;;;;;;17.38;49.85;100402.38;10262457;28;20327;-64
2023/06/15 01:51:58;;;;;;;4.75;1.48;;;;;;;17.32;49.89;100405.97;10263035;28;20055;-63
2023/06/15 01:57:00;;;;;;;5.60;1.42;;;;;;;17.16;50.28;100407.34;10261850;28;20115;-65
2023/06/15 02:02:01;;;;;;;1.85;1.40;;;;;;;17.07;50.50;100395.06;10265397;28;20118;-64
2023/06/15 02:07:03;;;;;;;2.13;1.52;;;;;;;17.01;50.42;100388.59;10261668;28;20082;-65
2023/06/15 02:12:06;;;;;;;2.85;1.92;;;;;;;16.98;50.91;100389.06;10262473;28;20051;-63
2023/06/15 02:17:07;;;;;;;2.50;1.40;;;;;;;16.90;51.07;100393.88;10265811;28;20043;-62
2023/06/15 02:22:09;;;;;;;3.03;1.58;;;;;;;16.80;51.43;100392.44;10263818;28;20106;-64
2023/06/15 02:27:10;;;;;;;2.05;1.38;;;;;;;16.75;51.52;100399.59;10261006;28;20111;-61
2023/06/15 02:32:29;;;;;;;7.18;1.52;;;;;;;16.67;51.70;100392.50;10261648;28;20043;-63
2023/06/15 02:37:31;;;;;;;1.58;1.30;;;;;;;16.61;51.92;100396.91;10259722;28;20051;-63
2023/06/15 02:42:33;;;;;;;4.97;1.60;;;;;;;16.50;51.95;100386.72;10264958;28;20077;-65
2023/06/15 02:47:37;;;;;;;5.32;1.63;;;;;;;16.40;52.36;100399.91;10261246;28;20399;-62
2023/06/15 02:52:40;;;;;;;2.47;1.85;;;;;;;16.28;52.48;100399.72;10260325;28;20487;-62
2023/06/15 02:57:42;;;;;;;3.28;1.92;;;;;;;16.18;52.94;100410.19;10264086;28;20035;-64
2023/06/15 03:02:44;;;;;;;3.50;1.95;;;;;;;16.14;53.08;100415.19;10264007;28;20122;-63
2023/06/15 03:07:46;;;;;;;2.25;1.60;;;;;;;16.13;52.98;100408.09;10262699;28;20504;-63
2023/06/15 03:12:47;;;;;;;4.68;1.70;;;;;;;15.95;53.58;100421.47;10253919;28;20114;-61
2023/06/15 03:17:49;;;;;;;1.85;1.60;;;;;;;16.02;53.38;100422.31;10225435;28;20055;-61
2023/06/15 03:22:51;;;;;;;3.53;1.52;;;;;;;16.08;53.31;100431.47;10216483;28;20043;-63
2023/06/15 03:27:59;;;;;;;5.68;1.85;;;;;;;16.08;53.34;100435.03;10221301;28;20070;-63
2023/06/15 03:33:02;;;;;;;2.35;1.92;;;;;;;16.07;53.52;100438.75;10219767;28;20384;-62
2023/06/15 03:38:04;;;;;;;7.93;2.40;;;;;;;16.10;53.55;100437.53;10220459;28;20146;-64
2023/06/15 03:43:05;;;;;;;3.63;1.55;;;;;;;16.12;53.59;100438.16;10221137;28;20055;-62
2023/06/15 03:48:07;;;;;;;3.67;2.05;;;;;;;16.13;53.66;100450.66;10224589;28;20066;-61
2023/06/15 03:53:11;;;;;;;2.42;2.20;;;;;;;16.17;53.67;100454.59;10216793;28;20051;-62
2023/06/15 03:58:16;;;;;;;1.85;1.70;;;;;;;16.14;53.89;100452.34;10221383;28;20043;-63
2023/06/15 04:03:18;;;;;;;3.92;1.73;;;;;;;16.25;53.94;100446.25;10217065;28;20339;-62
2023/06/15 04:08:19;;;;;;;4.18;2.00;;;;;;;16.32;53.95;100449.78;10225911;28;20052;-62
2023/06/15 04:13:21;;;;;;;3.08;1.85;;;;;;;16.33;54.15;100453.34;10229433;28;20059;-61
2023/06/15 04:18:23;;;;;;;2.83;1.48;;;;;;;16.42;54.12;100454.78;10230347;28;20050;-62
2023/06/15 04:23:25;;;;;;;3.30;1.88;;;;;;;16.48;53.99;100453.94;10232572;28;20073;-63
2023/06/15 04:28:27;;;;;;;3.28;1.67;;;;;;;16.54;54.13;100454.97;10232480;28;20051;-64
2023/06/15 04:33:29;;;;;;;4.43;1.60;;;;;;;16.69;53.81;100460.16;10229060;28;20047;-63
2023/06/15 04:38:30;;;;;;;3.00;1.80;;;;;;;16.82;53.92;100452.84;10232636;28;20062;-62
2023/06/15 04:43:32;;;;;;;5.53;1.88;;;;;;;16.97;53.60;100455.28;10229681;28;20047;-62
2023/06/15 04:48:33;;;;;;;2.75;1.60;;;;;;;16.99;53.81;100460.50;10228576;28;20058;-63
2023/06/15 04:53:35;;;;;;;3.70;2.00;;;;;;;17.10;53.64;100458.97;10232175;28;20047;-62
2023/06/15 04:58:37;;;;;;;5.47;2.30;;;;;;;17.23;53.75;100462.44;10231805;28;20414;-62
2023/06/15 05:03:39;;;;;;;4.00;2.15;;;;;;;17.37;53.69;100468.63;10232110;28;20047;-61
2023/06/15 05:08:41;;;;;;;1.67;1.58;;;;;;;17.49;53.59;100466.06;10228885;28;20043;-63
2023/06/15 05:13:42;;;;;;;3.60;2.10;;;;;;;17.67;53.52;100472.66;10226461;28;20052;-61
2023/06/15 05:18:46;;;;;;;4.50;1.80;;;;;;;17.82;53.74;100467.72;10224496;28;20051;-62
2023/06/15 05:23:47;;;;;;;4.72;1.65;;;;;;;18.01;53.51;100468.66;10210380;28;20438;-61
2023/06/15 05:28:49;;;;;;;3.65;1.80;;;;;;;18.22;53.33;100467.41;10224512;28;20044;-62
2023/06/15 05:33:50;;;;;;;2.63;1.92;;;;;;;18.45;53.12;100468.69;10230077;28;20039;-62
2023/06/15 05:38:52;;;;;;;2.97;2.05;;;;;;;18.61;53.05;100477.06;10231420;28;20103;-61
2023/06/15 05:43:54;;;;;;;3.35;1.70;;;;;;;18.77;52.81;100475.63;10226424;28;20043;-63
2023/06/15 05:48:55;;;;;;;3.33;2.22;;;;;;;18.89;52.48;100475.75;10209230;28;20051;-65
2023/06/15 05:53:56;;;;;;;3.10;1.50;;;;;;;19.10;52.17;100488.06;10224405;28;20055;-62
2023/06/15 05:58:58;;;;;;;6.72;1.90;;;;;;;19.30;51.46;100496.00;10213372;28;20061;-62
2023/06/15 06:03:59;;;;;;;4.35;1.85;;;;;;;19.39;51.18;100502.78;10223627;28;20045;-62
2023/06/15 06:09:01;;;;;;;3.67;1.77;;;;;;;19.48;50.99;100500.56;10221205;28;20055;-65
2023/06/15 06:14:02;;;;;;;5.28;1.58;;;;;;;19.69;50.57;100506.56;10221997;28;20052;-65
2023/06/15 06:19:04;;;;;;;3.40;1.52;;;;;;;19.82;49.99;100503.66;10225375;28;20051;-64
2023/06/15 06:24:05;;;;;;;2.00;1.42;;;;;;;19.96;49.67;100501.56;10220850;28;20383;-63
2023/06/15 06:29:07;;;;;;;5.10;1.80;;;;;;;20.12;49.48;100500.91;10225396;28;20078;-63
2023/06/15 06:34:08;;;;;;;1.95;1.40;;;;;;;20.19;49.28;100507.06;10226567;28;20040;-65
2023/06/15 06:39:10;;;;;;;2.60;1.60;;;;;;;20.45;48.82;100504.94;10227433;28;20043;-65
2023/06/15 06:44:12;;;;;;;2.42;1.48;;;;;;;20.57;48.10;100505.75;10216677;28;20130;-63
2023/06/15 06:49:13;;;;;;;4.28;1.90;;;;;;;20.74;48.34;100513.28;10223044;28;20506;-63
2023/06/15 06:54:15;;;;;;;3.63;1.60;;;;;;;21.02;47.76;100508.94;10191891;29;20404;-62
2023/06/15 06:59:16;;;;;;;1.88;1.38;;;;;;;21.25;47.38;100508.88;10170760;29;20086;-63
2023/06/15 07:04:38;;;;;;;3.92;1.30;;;;;;;21.43;46.92;100509.78;10201910;28;20553;-63
2023/06/15 07:09:39;;;;;;;2.75;1.50;;;;;;;21.61;46.24;100516.97;10208414;28;20525;-64
2023/06/15 07:14:41;;;;;;;3.28;1.17;;;;;;;21.87;46.24;100518.25;10191489;28;20047;-65
2023/06/15 07:19:45;;;;;;;3.58;1.50;;;;;;;22.07;45.45;100513.13;10220504;28;20070;-63
2023/06/15 07:24:47;;;;;;;3.05;1.10;;;;;;;22.27;45.06;100517.31;10187397;29;20056;-64
2023/06/15 07:29:48;;;;;;;2.40;1.20;;;;;;;22.44;44.15;100509.09;10208339;28;20051;-64
2023/06/15 07:34:50;;;;;;;3.85;1.17;;;;;;;22.60;43.56;100512.88;10196298;28;20415;-67
2023/06/15 07:39:51;;;;;;;7.43;2.45;;;;;;;22.77;43.08;100514.50;10193668;28;20458;-66
2023/06/15 07:44:53;;;;;;;2.92;1.40;;;;;;;22.93;42.84;100503.75;10206581;28;20082;-65
2023/06/15 07:49:54;;;;;;;3.22;1.30;;;;;;;23.08;42.70;100501.22;10183830;29;20047;-62
2023/06/15 07:54:55;;;;;;;2.58;1.10;;;;;;;23.23;42.46;100506.06;10224042;28;20071;-64
2023/06/15 07:59:58;;;;;;;3.20;1.38;;;;;;;23.41;41.76;100504.88;10188998;28;20063;-64
2023/06/15 08:05:00;;;;;;;1.90;1.27;;;;;;;23.50;41.52;100500.59;10202009;28;20059;-63
2023/06/15 08:10:02;;;;;;;3.55;1.58;;;;;;;23.67;40.75;100497.75;10163875;29;20080;-65
2023/06/15 08:15:05;;;;;;;2.75;1.70;;;;;;;23.85;40.55;100503.97;10198919;28;20039;-64
2023/06/15 08:20:09;;;;;;;3.42;1.52;;;;;;;23.78;40.26;100492.41;10201913;28;20491;-64
2023/06/15 08:25:12;;;;;;;1.73;1.52;;;;;;;23.97;39.92;100488.16;10184830;28;20130;-65
2023/06/15 08:30:13;;;;;;;2.22;1.33;;;;;;;24.04;39.41;100494.25;10208934;28;20535;-65
2023/06/15 08:35:15;;;;;;;1.90;1.33;;;;;;;24.10;38.99;100501.47;10182588;29;20058;-65
2023/06/15 08:40:19;;;;;;;2.63;1.25;;;;;;;24.32;38.95;100495.84;10223113;28;20051;-64
2023/06/15 08:45:20;;;;;;;2.47;1.48;;;;;;;24.58;38.45;100492.47;10157273;29;20564;-64
2023/06/15 08:50:22;;;;;;;3.78;1.10;;;;;;;24.69;37.62;100481.28;10208493;28;20127;-64
2023/06/15 08:55:24;;;;;;;1.98;1.17;;;;;;;24.81;37.48;100474.72;10182988;29;20040;-64
2023/06/15 09:00:25;;;;;;;3.25;1.27;;;;;;;25.04;37.02;100476.19;10184170;28;20172;-64
2023/06/15 09:05:27;;;;;;;1.60;1.30;;;;;;;25.23;37.03;100479.31;10186109;28;20667;-64
2023/06/15 09:10:29;;;;;;;3.55;1.65;;;;;;;25.43;36.19;100475.78;10212712;28;20052;-64
2023/06/15 09:15:31;;;;;;;6.63;1.35;;;;;;;25.53;35.87;100475.81;10227211;28;20612;-64
2023/06/15 09:20:38;;;;;;;5.65;1.33;;;;;;;25.75;35.63;100466.47;10228248;28;20040;-62
2023/06/15 09:25:48;;;;;;;3.28;1.20;;;;;;;25.84;35.58;100462.91;10223573;28;20078;-65
2023/06/15 09:30:56;;;;;;;1.40;1.30;;;;;;;26.17;34.95;100463.47;10220607;28;20054;-64
2023/06/15 09:36:06;;;;;;;2.72;1.05;;;;;;;26.39;34.58;100454.06;10222874;28;20048;-64
2023/06/15 09:41:08;;;;;;;1.75;1.20;;;;;;;26.61;33.77;100456.50;10217618;28;20072;-64
2023/06/15 09:46:12;;;;;;;3.95;1.00;;;;;;;26.71;31.73;100443.50;10221541;28;20403;-68
2023/06/15 09:51:15;;;;;;;3.63;0.82;;;;;;;27.14;32.21;100450.50;10218373;28;20085;-65
2023/06/15 09:56:18;;;;;;;1.65;1.25;;;;;;;27.51;31.38;100452.78;10215423;28;20054;-65
2023/06/15 10:01:34;;;;;;;2.47;0.90;;;;;;;27.29;31.31;100451.28;10224773;28;20044;-62
2023/06/15 10:06:37;;;;;;;1.77;1.02;;;;;;;27.42;31.05;100443.44;10222975;28;20069;-60
2023/06/15 10:11:41;;;;;;;1.40;1.00;;;;;;;27.60;29.96;100447.47;10227780;28;20051;-60
2023/06/15 10:16:48;;;;;;;2.55;1.00;;;;;;;27.77;30.27;100456.19;10226291;28;20050;-60
2023/06/15 10:21:51;;;;;;;6.57;1.45;;;;;;;27.77;29.94;100450.66;10223592;28;20047;-60
2023/06/15 10:26:53;;;;;;;5.78;2.47;;;;;;;27.97;29.91;100451.63;10219768;28;20167;-61
2023/06/15 10:32:06;;;;;;;7.95;1.60;;;;;;;28.32;29.20;100444.06;10220592;28;20157;-61
2023/06/15 10:37:46;;;;;;;5.90;1.10;;;;;;;28.53;28.04;100434.47;10225435;28;20052;-61
2023/06/15 10:42:48;;;;;;;3.67;0.90;;;;;;;28.56;27.87;100424.78;10206162;28;20399;-60
2023/06/15 10:47:50;;;;;;;3.15;1.17;;;;;;;29.03;27.32;100426.66;10218946;28;20118;-60
2023/06/15 10:52:52;;;;;;;3.78;1.42;;;;;;;29.21;27.11;100427.00;10222210;28;20074;-60
2023/06/15 10:58:18;;;;;;;6.03;0.95;;;;;;;29.34;27.15;100426.22;10223862;28;20055;-62
2023/06/15 11:03:26;;;;;;;3.90;0.90;;;;;;;29.64;26.67;100416.63;10225593;28;20533;-62
2023/06/15 11:08:31;;;;;;;4.88;0.88;;;;;;;29.82;26.03;100423.28;10221001;28;20062;-59
2023/06/15 11:13:32;;;;;;;2.60;1.42;;;;;;;29.80;24.72;100421.94;10226791;28;20052;-60
2023/06/15 11:18:34;;;;;;;2.90;0.85;;;;;;;29.83;25.42;100426.88;10221497;28;20062;-61
2023/06/15 11:23:37;;;;;;;3.70;1.10;;;;;;;30.01;24.79;100414.91;10218266;28;20042;-60
2023/06/15 11:28:41;;;;;;;4.93;1.20;;;;;;;30.23;24.26;100418.94;10214641;28;20051;-59
2023/06/15 11:33:42;;;;;;;3.70;0.90;;;;;;;30.16;23.77;100408.25;10217077;28;20039;-59
2023/06/15 11:38:44;;;;;;;3.22;1.00;;;;;;;30.32;23.82;100413.56;10224419;28;20050;-59
2023/06/15 11:43:48;;;;;;;2.08;0.90;;;;;;;30.62;23.66;100410.13;10222455;28;20387;-60
2023/06/15 11:48:57;;;;;;;2.83;0.90;;;;;;;30.18;23.42;100410.72;10222719;28;20503;-61
2023/06/15 11:54:00;;;;;;;2.83;0.70;;;;;;;29.79;24.59;100410.03;10227687;28;20369;-60
2023/06/15 11:59:01;;;;;;;2.63;1.30;;;;;;;30.10;24.43;100409.50;10215852;28;20047;-59
2023/06/15 12:04:12;;;;;;;4.43;0.80;;;;;;;30.40;23.98;100385.09;10221809;28;20043;-60
2023/06/15 12:09:19;;;;;;;2.13;1.05;;;;;;;30.62;23.49;100381.56;10218557;28;20150;-62
2023/06/15 12:14:24;;;;;;;2.13;0.80;;;;;;;31.01;23.12;100371.88;10221843;28;20055;-60
2023/06/15 12:19:26;;;;;;;1.83;1.00;;;;;;;31.15;22.67;100382.94;10223767;28;20582;-60
2023/06/15 12:24:27;;;;;;;3.90;1.13;;;;;;;31.29;22.04;100388.44;10223849;28;20039;-59
2023/06/15 12:29:29;;;;;;;6.20;2.45;;;;;;;31.51;21.47;100385.69;10226528;28;20039;-62
2023/06/15 12:34:30;;;;;;;2.55;0.95;;;;;;;31.95;21.07;100377.63;10226953;28;20047;-60
2023/06/15 12:39:33;;;;;;;2.65;1.10;;;;;;;31.90;20.92;100370.25;10230636;28;20036;-60
2023/06/15 12:44:34;;;;;;;1.30;0.82;;;;;;;32.14;20.86;100375.44;10229887;28;20455;-59
2023/06/15 12:49:36;;;;;;;3.65;0.80;;;;;;;32.41;20.06;100371.63;10228058;28;20043;-62
2023/06/15 12:54:37;;;;;;;3.75;0.82;;;;;;;32.79;19.33;100361.91;10223241;28;20047;-60
2023/06/15 12:59:39;;;;;;;4.47;1.83;;;;;;;32.96;19.50;100356.38;10223038;28;20062;-59
2023/06/15 13:04:40;;;;;;;3.10;0.90;;;;;;;32.79;19.33;100364.69;10228738;28;20110;-58
2023/06/15 13:09:42;;;;;;;2.20;0.80;;;;;;;32.75;19.42;100360.94;10216624;28;20063;-60
2023/06/15 13:14:44;;;;;;;2.10;0.90;;;;;;;32.61;19.40;100358.28;10227667;28;20499;-58
2023/06/15 13:19:45;;;;;;;2.67;1.25;;;;;;;32.97;18.66;100349.63;10227904;28;20407;-60
2023/06/15 13:24:47;;;;;;;3.33;0.80;;;;;;;33.26;18.42;100348.19;10222935;28;20054;-59
2023/06/15 13:29:48;;;;;;;2.30;0.80;;;;;;;33.77;18.13;100343.69;10224845;28;20050;-69
2023/06/15 13:34:49;;;;;;;3.30;1.05;;;;;;;34.66;17.63;100336.56;10209707;28;20426;-60
2023/06/15 13:39:51;;;;;;;1.10;0.75;;;;;;;35.86;16.30;100329.41;10221437;28;20414;-62
2023/06/15 13:44:53;;;;;;;3.03;0.70;;;;;;;37.56;14.91;100325.84;10226055;28;20067;-60
2023/06/15 13:49:55;;;;;;;2.42;1.00;;;;;;;38.78;13.51;100319.59;10225731;28;20151;-60
2023/06/15 13:54:58;;;;;;;2.95;0.80;;;;;;;39.29;13.15;100324.28;10220753;28;20054;-60
2023/06/15 13:59:59;;;;;;;3.45;0.98;;;;;;;39.69;12.80;100315.38;10222062;28;20498;-62
2023/06/15 14:05:01;;;;;;;1.20;0.70;;;;;;;40.03;12.27;100316.41;10226824;28;20058;-59
2023/06/15 14:10:03;;;;;;;1.85;0.70;;;;;;;39.31;12.29;100308.63;10223028;28;20479;-62
2023/06/15 14:15:08;;;;;;;1.75;0.70;;;;;;;37.76;13.96;100297.88;10225882;28;20047;-61
2023/06/15 14:20:10;;;;;;;1.48;0.90;;;;;;;36.33;14.33;100307.38;10224808;28;20398;-60
2023/06/15 14:25:12;;;;;;;7.45;1.00;;;;;;;36.47;14.55;100309.81;10227464;28;20047;-60
2023/06/15 14:30:16;;;;;;;4.43;0.90;;;;;;;36.61;14.65;100303.03;10225213;28;20051;-60
2023/06/15 14:35:18;;;;;;;1.45;1.00;;;;;;;37.56;14.20;100294.13;10226512;28;20438;-60
2023/06/15 14:40:20;;;;;;;5.05;0.80;;;;;;;38.14;13.25;100293.66;10221027;28;20412;-60
2023/06/15 14:45:22;;;;;;;4.50;1.00;;;;;;;37.55;14.08;100293.34;10224881;28;20085;-59
2023/06/15 14:50:24;;;;;;;4.38;0.90;;;;;;;37.59;13.96;100291.47;10225355;28;20079;-60
2023/06/15 14:55:25;;;;;;;3.10;1.00;;;;;;;37.56;13.91;100289.38;10218363;28;20402;-59
2023/06/15 15:00:26;;;;;;;5.10;1.10;;;;;;;36.99;14.27;100287.75;10219568;28;20055;-61
2023/06/15 15:05:28;;;;;;;4.03;1.00;;;;;;;35.99;15.15;100291.88;10218617;28;20055;-63
2023/06/15 15:10:29;;;;;;;2.15;0.70;;;;;;;35.32;15.15;100286.38;10224050;28;20047;-60
2023/06/15 15:15:31;;;;;;;1.83;1.00;;;;;;;35.09;15.15;100285.09;10219143;28;20040;-60
2023/06/15 15:20:32;;;;;;;7.05;1.42;;;;;;;35.67;15.49;100291.63;10226003;28;20051;-60
2023/06/15 15:25:34;;;;;;;2.30;1.15;;;;;;;35.70;15.12;100288.09;10222727;28;20047;-60
2023/06/15 15:30:38;;;;;;;1.55;0.90;;;;;;;35.65;14.98;100279.13;10219135;28;20083;-61
2023/06/15 15:35:40;;;;;;;3.22;1.10;;;;;;;36.04;15.48;100277.66;10218271;28;20380;-60
2023/06/15 15:40:42;;;;;;;2.05;1.08;;;;;;;35.84;15.50;100282.19;10220073;28;20134;-63
2023/06/15 15:45:43;;;;;;;5.28;1.25;;;;;;;35.90;15.46;100274.38;10218019;28;20506;-63
2023/06/15 15:50:45;;;;;;;1.95;1.02;;;;;;;35.92;15.15;100280.44;10219631;28;20050;-60
2023/06/15 15:55:47;;;;;;;2.35;0.90;;;;;;;35.73;14.91;100276.25;10217820;28;20098;-60
2023/06/15 16:00:48;;;;;;;1.45;1.20;;;;;;;35.37;15.06;100279.78;10221886;28;20054;-59
2023/06/15 16:05:50;;;;;;;4.32;1.00;;;;;;;35.22;15.20;100280.41;10224098;28;20062;-63
2023/06/15 16:10:51;;;;;;;3.97;1.52;;;;;;;35.57;15.37;100280.03;10228330;28;20047;-61
2023/06/15 16:15:53;;;;;;;5.25;1.33;;;;;;;35.34;15.54;100266.47;10226203;28;20062;-60
2023/06/15 16:21:14;;;;;;;2.72;1.55;;;;;;;35.10;15.81;100267.19;10226447;28;20071;-61
2023/06/15 16:26:16;;;;;;;3.10;1.35;;;;;;;35.27;15.72;100277.38;10224110;28;20051;-60
2023/06/15 16:31:17;;;;;;;3.40;1.20;;;;;;;35.60;15.88;100277.34;10228716;28;20047;-64
2023/06/15 16:36:19;;;;;;;2.30;1.10;;;;;;;35.83;15.74;100276.94;10226981;28;20054;-61
2023/06/15 16:41:21;;;;;;;5.25;1.10;;;;;;;36.07;16.19;100271.34;10227942;28;20363;-62
2023/06/15 16:46:22;;;;;;;1.50;1.05;;;;;;;36.22;15.84;100266.22;10224210;28;20044;-68
2023/06/15 16:51:24;;;;;;;1.83;1.08;;;;;;;35.90;16.11;100266.81;10225628;28;20166;-68
2023/06/15 16:56:26;;;;;;;4.07;1.05;;;;;;;35.29;16.45;100264.72;10231285;28;20047;-68
2023/06/15 17:01:27;;;;;;;3.72;1.10;;;;;;;34.59;17.73;100274.84;10228517;28;20051;-68
2023/06/15 17:06:29;;;;;;;4.95;1.15;;;;;;;33.92;18.09;100264.22;10225314;28;20075;-69
2023/06/15 17:11:31;;;;;;;6.53;1.60;;;;;;;33.65;18.47;100270.25;10210564;28;20058;-66
2023/06/15 17:16:32;;;;;;;2.25;1.15;;;;;;;33.52;18.93;100286.00;10219156;28;20059;-65
2023/06/15 17:21:34;;;;;;;5.63;1.42;;;;;;;32.80;19.22;100283.63;10226180;28;20050;-68
2023/06/15 17:26:39;;;;;;;2.95;1.30;;;;;;;32.29;19.33;100287.13;10229390;28;20122;-64
2023/06/15 17:31:40;;;;;;;2.67;1.50;;;;;;;31.68;19.87;100289.69;10226677;28;20050;-64
2023/06/15 17:36:42;;;;;;;3.45;1.23;;;;;;;31.20;20.34;100283.66;10225353;28;20051;-66
2023/06/15 17:41:43;;;;;;;2.10;1.60;;;;;;;31.81;19.90;100294.28;10225629;28;20047;-63
2023/06/15 17:46:45;;;;;;;1.88;1.08;;;;;;;32.26;19.65;100287.78;10225410;28;20166;-69
2023/06/15 17:51:46;;;;;;;4.18;1.50;;;;;;;32.66;19.56;100290.50;10222960;28;20057;-67
2023/06/15 17:56:49;;;;;;;3.08;1.45;;;;;;;32.57;19.72;100288.53;10222105;28;20520;-66
2023/06/15 18:01:51;;;;;;;1.80;1.05;;;;;;;32.24;20.19;100292.84;10228073;28;20512;-67
2023/06/15 18:06:52;;;;;;;4.20;1.40;;;;;;;31.94;20.36;100295.34;10220944;28;20059;-64
2023/06/15 18:11:54;;;;;;;3.13;1.75;;;;;;;31.66;20.83;100300.28;10226500;28;20554;-65
2023/06/15 18:16:55;;;;;;;1.17;0.80;;;;;;;31.12;20.86;100306.59;10220941;28;20111;-65
2023/06/15 18:21:57;;;;;;;4.13;1.38;;;;;;;30.58;21.49;100302.88;10226649;28;20048;-66
2023/06/15 18:26:58;;;;;;;1.48;1.20;;;;;;;30.13;21.24;100305.44;10225170;28;20054;-64
2023/06/15 18:31:59;;;;;;;3.42;1.27;;;;;;;29.75;21.67;100302.88;10222581;28;20051;-68
2023/06/15 18:37:02;;;;;;;7.80;1.52;;;;;;;29.49;22.05;100308.03;10218377;28;20060;-65
2023/06/15 18:42:03;;;;;;;7.43;1.58;;;;;;;29.16;22.41;100308.00;10222941;28;20052;-69
2023/06/15 18:47:05;;;;;;;6.28;1.38;;;;;;;28.84;22.87;100304.06;10219991;28;20039;-67
2023/06/15 18:52:08;;;;;;;2.58;1.67;;;;;;;28.56;23.43;100301.13;10218827;28;20461;-68
2023/06/15 18:57:12;;;;;;;2.65;1.63;;;;;;;28.34;23.85;100296.13;10201950;28;20054;-69
2023/06/15 19:02:18;;;;;;;2.35;1.35;;;;;;;28.09;24.50;100308.31;10229074;28;20058;-65
2023/06/15 19:07:20;;;;;;;6.78;1.30;;;;;;;27.81;24.89;100313.56;10229398;28;20391;-66
2023/06/15 19:12:21;;;;;;;5.85;1.05;;;;;;;27.54;25.34;100313.31;10222424;28;20530;-67
2023/06/15 19:17:23;;;;;;;3.25;1.52;;;;;;;27.34;26.14;100315.13;10211432;28;20055;-65
2023/06/15 19:22:24;;;;;;;7.32;1.25;;;;;;;27.11;26.61;100316.66;10215034;28;20043;-67
2023/06/15 19:27:26;;;;;;;2.72;1.55;;;;;;;26.89;26.96;100323.41;10209895;28;20591;-66
2023/06/15 19:32:28;;;;;;;4.50;1.67;;;;;;;26.63;27.68;100314.47;10219468;28;20054;-68
2023/06/15 19:37:30;;;;;;;9.10;1.27;;;;;;;26.41;27.45;100325.03;10213926;28;20582;-67
2023/06/15 19:42:31;;;;;;;3.45;1.30;;;;;;;26.21;28.43;100321.25;10220580;28;20059;-68
2023/06/15 19:47:35;;;;;;;4.05;1.80;;;;;;;25.99;28.89;100326.28;10210349;28;20047;-65
2023/06/15 19:52:39;;;;;;;;;;;;;;;25.78;27.82;100329.06;10220512;28;20088;-68
2023/06/15 19:57:40;;;;;;;3.95;1.50;;;;;;;25.55;29.11;100335.94;10221651;28;19922;-67
2023/06/15 20:02:42;;;;;;;4.80;1.92;;;;;;;25.33;30.19;100344.50;10209825;28;20071;-66
2023/06/15 20:07:44;;;;;;;6.88;1.80;;;;;;;25.12;30.92;100344.47;10218191;28;20039;-68
2023/06/15 20:12:46;;;;;;;5.32;1.70;;;;;;;24.89;31.09;100343.03;10229289;28;20136;-66
2023/06/15 20:17:48;;;;;;;4.28;1.25;;;;;;;24.68;31.24;100344.88;10211999;28;20581;-67
2023/06/15 20:22:49;;;;;;;8.15;1.48;;;;;;;24.46;31.13;100350.56;10215758;28;20047;-68
2023/06/15 20:27:51;;;;;;;3.65;1.63;;;;;;;24.22;31.49;100352.09;10225164;28;20058;-66
2023/06/15 20:32:52;;;;;;;4.85;1.70;;;;;;;24.07;31.81;100350.09;10221480;28;20043;-68
2023/06/15 20:37:55;;;;;;;9.32;1.40;;;;;;;23.87;31.63;100348.03;10224119;28;20063;-67
2023/06/15 20:42:58;;;;;;;3.85;1.60;;;;;;;23.61;31.61;100344.28;10214162;28;20062;-65
2023/06/15 20:48:00;;;;;;;5.50;1.52;;;;;;;23.36;31.68;100345.69;10212732;28;20052;-69
2023/06/15 20:53:04;;;;;;;3.05;1.50;;;;;;;23.22;32.04;100344.47;10226156;28;20525;-66
2023/06/15 20:58:07;;;;;;;4.40;1.35;;;;;;;23.04;32.24;100356.66;10227932;28;20051;-61
2023/06/15 21:03:08;;;;;;;6.05;1.58;;;;;;;22.88;32.22;100353.72;10223952;28;20395;-62
2023/06/15 21:08:10;;;;;;;2.20;1.27;;;;;;;22.81;32.93;100355.00;10225696;28;20150;-61
2023/06/15 21:13:15;;;;;;;3.10;1.27;;;;;;;22.64;34.06;100355.91;10222952;28;20047;-61
2023/06/15 21:18:16;;;;;;;3.25;1.63;;;;;;;22.33;34.51;100358.28;10221686;28;20543;-61
2023/06/15 21:23:17;;;;;;;4.43;1.70;;;;;;;22.12;35.23;100351.66;10227438;28;20046;-62
2023/06/15 21:28:19;;;;;;;6.78;1.27;;;;;;;21.88;35.00;100356.53;10225238;28;20051;-61
2023/06/15 21:33:20;;;;;;;7.28;1.63;;;;;;;21.64;35.23;100363.25;10223885;28;20059;-62
2023/06/15 21:38:22;;;;;;;4.03;2.85;;;;;;;21.48;35.21;100362.19;10220311;28;20132;-62
2023/06/15 21:43:23;;;;;;;4.75;1.35;;;;;;;21.39;35.85;100362.56;10227508;28;20052;-63
2023/06/15 21:48:25;;;;;;;5.40;1.70;;;;;;;21.26;36.94;100362.88;10220743;28;20495;-63
2023/06/15 21:53:26;;;;;;;3.08;1.77;;;;;;;21.13;37.10;100363.16;10221453;28;20043;-63
2023/06/15 21:58:28;;;;;;;3.10;1.60;;;;;;;21.01;37.95;100374.19;10220730;28;20048;-63
2023/06/15 22:03:29;;;;;;;9.55;1.70;;;;;;;20.90;37.67;100369.59;10224218;28;20109;-63
2023/06/15 22:08:30;;;;;;;2.63;1.70;;;;;;;20.77;38.42;100371.56;10222664;28;20543;-63
2023/06/15 22:13:34;;;;;;;3.60;1.58;;;;;;;20.67;39.08;100374.06;10221624;28;20439;-64
2023/06/15 22:18:37;;;;;;;5.53;1.45;;;;;;;20.55;39.32;100367.78;10222275;28;20055;-63
2023/06/15 22:23:38;;;;;;;2.38;1.58;;;;;;;20.44;40.12;100360.44;10221616;28;20048;-63
2023/06/15 22:28:40;;;;;;;4.07;1.98;;;;;;;20.29;40.32;100369.97;10223863;28;20067;-64
2023/06/15 22:33:42;;;;;;;3.08;1.40;;;;;;;20.15;40.77;100371.28;10224157;28;20044;-64
2023/06/15 22:38:43;;;;;;;3.15;1.60;;;;;;;19.98;41.36;100363.84;10223856;28;20402;-64
2023/06/15 22:43:44;;;;;;;3.92;1.50;;;;;;;19.85;41.11;100364.06;10224520;28;20155;-64
2023/06/15 22:48:46;;;;;;;3.53;1.60;;;;;;;19.73;40.88;100369.53;10222663;28;20055;-63
2023/06/15 22:53:49;;;;;;;5.30;1.98;;;;;;;19.56;41.23;100361.16;10226462;28;20043;-63
2023/06/15 22:58:50;;;;;;;5.05;1.30;;;;;;;19.43;41.35;100366.81;10219904;28;20047;-62
2023/06/15 23:03:55;;;;;;;5.45;1.98;;;;;;;19.35;41.60;100373.47;10218468;28;20047;-63
2023/06/15 23:08:57;;;;;;;3.80;1.40;;;;;;;19.25;41.50;100384.09;10220402;28;20285;-63